Terminal Aerodrome Forecast
Issued by NWS

Home | Current Version | Previous Version | Text Only | Print | Product List | Glossary On
Versions: 1 2 3 4 5 6 7 8 9 10 11 12 13 14
000
FTUS42 TJSJ 120500
TAFKPK
TAF
TKPK 120522Z 1206/1306 07010KT P6SM FEW020
     FM121300 09012KT P6SM VCSH SCT019
     FM122300 08012KT P6SM FEW018
      AMD NOT SKED TIL 121200=

USA.gov is the U.S. government's official web portal to all federal, state and local government web resources and services.